createdAt,value
2022-08-21T14:15:52.686Z,24.92
2022-08-21T14:19:16.698Z,25.26
2022-08-21T14:22:48.726Z,25.72
2022-08-21T14:26:14.757Z,25.77
2022-08-21T14:29:26.752Z,24.77
2022-08-21T14:32:53.742Z,25.94
2022-08-21T14:36:05.801Z,26.88
2022-08-21T14:39:18.762Z,26.49
2022-08-21T14:42:30.800Z,25.51
2022-08-21T14:45:54.825Z,25.92
2022-08-21T14:49:08.856Z,26.60
2022-08-21T14:52:33.832Z,26.29
2022-08-21T14:55:46.826Z,26.37
2022-08-21T14:59:10.870Z,26.50
2022-08-21T15:02:22.817Z,26.85
2022-08-21T15:05:48.849Z,27.23
2022-08-21T15:09:00.896Z,27.92
2022-08-21T15:12:28.887Z,27.18
2022-08-21T15:15:41.930Z,27.67
2022-08-21T15:19:05.936Z,28.16
2022-08-21T15:22:27.564Z,28.29
2022-08-21T15:25:32.937Z,28.33
2022-08-21T15:28:44.943Z,28.43
2022-08-21T15:32:14.931Z,28.31
2022-08-21T15:35:26.901Z,28.58
2022-08-21T15:38:51.962Z,28.61
2022-08-21T15:41:54.928Z,28.80
2022-08-21T15:45:21.978Z,28.77
2022-08-21T15:48:22.945Z,28.68
2022-08-21T15:51:36.003Z,28.67
2022-08-21T15:54:48.988Z,28.84
2022-08-21T15:58:17.035Z,28.95
2022-08-21T16:01:18.070Z,29.12
2022-08-21T16:04:46.081Z,29.00
2022-08-21T16:07:58.019Z,29.13
2022-08-21T16:11:24.051Z,29.15
2022-08-21T16:14:36.051Z,29.23
2022-08-21T16:18:02.062Z,29.20
2022-08-21T16:21:14.102Z,29.12
2022-08-21T16:24:38.079Z,29.21
2022-08-21T16:28:04.088Z,29.65
2022-08-21T16:31:28.110Z,29.75
2022-08-21T16:34:40.079Z,30.00
2022-08-21T16:38:05.369Z,30.05
2022-08-21T16:41:17.107Z,29.98
2022-08-21T16:44:48.663Z,30.08
2022-08-21T16:47:56.153Z,29.97
2022-08-21T16:51:20.149Z,30.00
2022-08-21T16:54:20.153Z,30.01
2022-08-21T16:57:44.207Z,29.83
2022-08-21T17:00:58.206Z,29.87
2022-08-21T17:04:10.182Z,30.10
2022-08-21T17:07:10.199Z,30.14
2022-08-21T17:10:34.217Z,30.18
2022-08-21T17:13:53.251Z,30.34
2022-08-21T17:17:19.353Z,30.56
2022-08-21T17:20:20.254Z,30.69
2022-08-21T17:23:44.269Z,30.89
2022-08-21T17:26:56.308Z,30.91
2022-08-21T17:30:20.274Z,31.01
2022-08-21T17:33:34.262Z,31.39
2022-08-21T17:36:58.444Z,31.35
2022-08-21T17:39:58.387Z,31.58
2022-08-21T17:43:22.370Z,31.46
2022-08-21T17:46:34.436Z,31.65
2022-08-21T17:50:00.353Z,31.90
2022-08-21T17:53:01.307Z,32.26
2022-08-21T17:56:28.378Z,32.36
2022-08-21T17:59:40.376Z,32.94
2022-08-21T18:03:07.400Z,33.25
2022-08-21T18:06:33.373Z,33.13
2022-08-21T18:09:34.416Z,33.20
2022-08-21T18:12:58.580Z,33.70
2022-08-21T18:16:10.958Z,33.91
2022-08-21T18:19:35.466Z,34.13
2022-08-21T18:22:49.501Z,34.20
2022-08-21T18:26:13.429Z,34.52
2022-08-21T18:29:28.445Z,34.91
2022-08-21T18:32:53.481Z,34.64
2022-08-21T18:36:05.483Z,35.78
2022-08-21T18:39:38.922Z,35.43
2022-08-21T18:42:43.505Z,35.74
2022-08-21T18:46:08.526Z,36.12
2022-08-21T18:49:09.486Z,36.29
2022-08-21T18:52:34.528Z,36.43
2022-08-21T18:55:47.501Z,36.57
2022-08-21T18:59:11.604Z,36.73
2022-08-21T19:02:12.525Z,37.07
2022-08-21T19:05:37.582Z,37.10
2022-08-21T19:08:50.597Z,37.40
2022-08-21T19:12:16.602Z,37.59
2022-08-21T19:15:30.563Z,37.62
2022-08-21T19:18:54.628Z,37.88
2022-08-21T19:21:55.616Z,38.22
2022-08-21T19:25:08.663Z,38.85
2022-08-21T19:28:22.667Z,38.47
2022-08-21T19:31:46.835Z,39.13
2022-08-21T19:34:58.651Z,39.24
2022-08-21T19:38:11.677Z,39.30
2022-08-21T19:41:23.664Z,39.45
2022-08-21T19:44:55.528Z,40.03
2022-08-21T19:48:18.949Z,39.77
2022-08-21T19:51:28.734Z,40.18
2022-08-21T19:54:40.725Z,40.23
2022-08-21T19:57:53.750Z,40.93
2022-08-21T20:01:16.660Z,40.54
2022-08-21T20:04:31.733Z,40.74
2022-08-21T20:07:46.785Z,40.59
2022-08-21T20:11:11.798Z,40.62
2022-08-21T20:14:23.780Z,41.25
2022-08-21T20:17:49.788Z,40.93
2022-08-21T20:20:50.805Z,42.56
2022-08-21T20:24:15.313Z,41.28
2022-08-21T20:27:27.295Z,41.31
2022-08-21T20:30:50.798Z,41.28
2022-08-21T20:34:05.813Z,41.37
2022-08-21T20:37:22.097Z,41.27
2022-08-21T20:40:33.145Z,41.35
2022-08-21T20:43:56.907Z,41.59
2022-08-21T20:47:09.373Z,41.52
2022-08-21T20:50:34.897Z,41.54
2022-08-21T20:53:47.887Z,42.71
2022-08-21T20:57:13.623Z,41.50
2022-08-21T21:00:24.926Z,41.40
2022-08-21T21:03:49.003Z,41.69
2022-08-21T21:07:01.945Z,41.68
2022-08-21T21:10:26.079Z,41.61
2022-08-21T21:13:38.027Z,41.62
2022-08-21T21:17:01.972Z,41.67
2022-08-21T21:20:14.022Z,41.78
2022-08-21T21:23:41.123Z,41.87
2022-08-21T21:26:53.037Z,41.89
2022-08-21T21:30:19.015Z,41.94
2022-08-21T21:33:33.996Z,42.14
2022-08-21T21:36:58.028Z,42.16
2022-08-21T21:40:16.042Z,42.17
2022-08-21T21:43:42.078Z,42.50
2022-08-21T21:46:56.025Z,42.37
2022-08-21T21:50:28.066Z,42.31
2022-08-21T21:53:42.049Z,42.49
2022-08-21T21:57:08.079Z,42.45
2022-08-21T22:00:20.098Z,42.47
2022-08-21T22:03:44.103Z,42.48
2022-08-21T22:06:58.105Z,42.57
2022-08-21T22:10:30.519Z,42.65
2022-08-21T22:13:39.130Z,42.81
2022-08-21T22:17:03.184Z,43.14
2022-08-21T22:20:15.145Z,42.80
2022-08-21T22:23:39.186Z,43.29
2022-08-21T22:26:51.182Z,43.81
2022-08-21T22:30:20.165Z,43.87
2022-08-21T22:33:35.232Z,43.23
2022-08-21T22:36:59.203Z,43.20
2022-08-21T22:40:12.331Z,43.35
2022-08-21T22:43:42.218Z,43.29
2022-08-21T22:46:57.303Z,43.11
2022-08-21T22:50:24.058Z,43.21
2022-08-21T22:53:35.270Z,43.42
2022-08-21T22:57:00.315Z,43.17
2022-08-21T23:00:16.312Z,43.85
2022-08-21T23:03:45.300Z,43.55
2022-08-21T23:06:57.368Z,43.46
2022-08-21T23:10:21.329Z,43.41
2022-08-21T23:13:33.313Z,43.66
2022-08-21T23:17:01.403Z,43.41
2022-08-21T23:20:15.337Z,43.50
2022-08-21T23:23:39.368Z,43.60
2022-08-21T23:26:52.157Z,43.90
2022-08-21T23:30:18.594Z,43.94
2022-08-21T23:33:34.150Z,44.12
2022-08-21T23:37:06.044Z,44.16
2022-08-21T23:40:20.458Z,44.08
2022-08-21T23:43:47.433Z,44.17
2022-08-21T23:47:05.457Z,44.28
2022-08-21T23:50:29.411Z,44.59
2022-08-21T23:57:19.724Z,45.18
